createdAt,value
2019-03-19T00:00:17.416Z,47.80
2019-03-19T00:02:46.699Z,48.00
2019-03-19T00:05:16.035Z,47.70
2019-03-19T00:07:45.320Z,48.00
2019-03-19T00:10:14.812Z,47.50
2019-03-19T00:12:44.111Z,47.60
2019-03-19T00:15:13.553Z,48.00
2019-03-19T00:17:43.154Z,48.00
2019-03-19T00:20:16.662Z,48.20
2019-03-19T00:22:45.932Z,47.20
2019-03-19T00:25:15.469Z,48.50
2019-03-19T00:27:44.740Z,49.30
2019-03-19T00:30:16.341Z,49.00
2019-03-19T00:32:45.609Z,48.80
2019-03-19T00:35:14.902Z,49.10
2019-03-19T00:37:44.174Z,48.80
2019-03-19T00:40:14.921Z,48.90
2019-03-19T00:42:44.196Z,48.80
2019-03-19T00:45:14.123Z,49.20
2019-03-19T00:47:43.811Z,49.50
2019-03-19T00:50:15.211Z,50.00
2019-03-19T00:52:44.751Z,50.40
2019-03-19T00:55:14.028Z,49.70
2019-03-19T00:57:43.299Z,49.30
2019-03-19T01:00:18.619Z,48.60
2019-03-19T01:02:47.892Z,48.80
2019-03-19T01:05:17.176Z,49.80
2019-03-19T01:07:46.456Z,49.60
2019-03-19T01:10:17.697Z,49.70
2019-03-19T01:12:47.588Z,50.60
2019-03-19T01:15:17.148Z,50.70
2019-03-19T01:17:46.431Z,51.00
2019-03-19T01:20:16.360Z,51.90
2019-03-19T01:22:45.644Z,52.00
2019-03-19T01:25:14.928Z,51.30
2019-03-19T01:27:44.472Z,51.30
2019-03-19T01:30:14.984Z,51.70
2019-03-19T01:32:44.274Z,51.70
2019-03-19T01:35:13.543Z,51.20
2019-03-19T01:37:43.110Z,51.40
2019-03-19T01:40:13.036Z,51.30
2019-03-19T01:42:42.321Z,51.70
2019-03-19T01:45:12.558Z,52.00
2019-03-19T01:47:41.845Z,51.70
2019-03-19T01:50:14.748Z,51.60
2019-03-19T01:52:44.039Z,51.60
2019-03-19T01:55:15.147Z,52.30
2019-03-19T01:57:44.483Z,52.40
2019-03-19T02:00:15.042Z,52.10
2019-03-19T02:02:44.483Z,52.10
2019-03-19T02:05:14.010Z,51.60
2019-03-19T02:07:43.288Z,51.00
2019-03-19T02:10:13.710Z,50.10
2019-03-19T02:12:42.976Z,49.60
2019-03-19T02:15:18.491Z,49.30
2019-03-19T02:17:47.779Z,49.60
2019-03-19T02:20:17.998Z,48.90
2019-03-19T02:22:47.598Z,49.20
2019-03-19T02:25:16.869Z,49.80
2019-03-19T02:27:46.172Z,50.20
2019-03-19T02:30:16.308Z,50.50
2019-03-19T02:32:45.614Z,51.10
2019-03-19T02:35:14.964Z,51.00
2019-03-19T02:37:44.257Z,50.40
2019-03-19T02:40:16.442Z,50.10
2019-03-19T02:42:45.709Z,49.90
2019-03-19T02:45:15.766Z,50.60
2019-03-19T02:47:45.020Z,51.20
2019-03-19T02:50:18.869Z,51.10
2019-03-19T02:52:48.441Z,51.10
2019-03-19T02:55:17.752Z,50.80
2019-03-19T02:57:47.031Z,50.50
2019-03-19T03:00:17.660Z,50.70
2019-03-19T03:02:46.950Z,51.00
2019-03-19T03:05:20.231Z,51.50
2019-03-19T03:07:49.597Z,52.20
2019-03-19T03:10:18.970Z,53.10
2019-03-19T03:12:48.229Z,53.00
2019-03-19T03:15:17.781Z,53.10
2019-03-19T03:17:47.055Z,53.10
2019-03-19T03:20:16.885Z,53.10
2019-03-19T03:22:46.205Z,52.40
2019-03-19T03:25:16.681Z,51.80
2019-03-19T03:27:46.011Z,52.00
2019-03-19T03:30:16.542Z,51.30
2019-03-19T03:32:46.046Z,50.70
2019-03-19T03:35:15.399Z,50.00
2019-03-19T03:37:44.724Z,49.50
2019-03-19T03:40:17.624Z,49.40
2019-03-19T03:42:47.152Z,48.90
2019-03-19T03:45:17.288Z,48.90
2019-03-19T03:47:46.572Z,49.30
2019-03-19T03:50:19.207Z,49.60
2019-03-19T03:52:48.515Z,50.10
2019-03-19T03:55:19.968Z,50.40
2019-03-19T03:57:49.428Z,50.90
2019-03-19T04:00:24.913Z,50.60
2019-03-19T04:02:54.202Z,51.20
2019-03-19T04:05:23.763Z,51.00
2019-03-19T04:07:53.053Z,50.70
2019-03-19T04:10:22.571Z,50.80
2019-03-19T04:12:51.858Z,51.20
2019-03-19T04:15:21.247Z,51.40
2019-03-19T04:17:50.523Z,52.90
2019-03-19T04:20:19.821Z,53.40
2019-03-19T04:22:49.123Z,53.80
2019-03-19T04:25:18.786Z,54.00
2019-03-19T04:27:48.077Z,53.80
2019-03-19T04:30:19.384Z,53.60
2019-03-19T04:32:48.675Z,53.50
2019-03-19T04:35:17.962Z,54.90
2019-03-19T04:37:47.538Z,54.40
2019-03-19T04:40:17.351Z,54.10
2019-03-19T04:42:46.651Z,53.70
2019-03-19T04:45:17.083Z,53.10
2019-03-19T04:47:46.374Z,53.10
2019-03-19T04:50:17.198Z,52.60
2019-03-19T04:52:46.492Z,52.00
2019-03-19T04:55:16.639Z,51.40
2019-03-19T04:57:45.917Z,51.00
2019-03-19T05:00:16.244Z,52.10
2019-03-19T05:02:45.531Z,52.40
2019-03-19T05:05:14.911Z,52.90
2019-03-19T05:07:44.199Z,53.70
2019-03-19T05:10:17.468Z,53.90
2019-03-19T05:12:46.761Z,53.60
2019-03-19T05:15:16.264Z,53.20
2019-03-19T05:17:45.870Z,52.50
2019-03-19T05:20:16.314Z,52.90
2019-03-19T05:22:45.595Z,52.30
2019-03-19T05:25:15.227Z,52.40
2019-03-19T05:27:44.483Z,52.60
2019-03-19T05:30:20.747Z,52.10
2019-03-19T05:32:50.041Z,51.90
2019-03-19T05:35:19.427Z,54.10
2019-03-19T05:37:48.981Z,53.20
2019-03-19T05:40:18.327Z,52.70
2019-03-19T05:42:47.625Z,53.70
2019-03-19T05:45:17.077Z,54.20
2019-03-19T05:47:46.372Z,54.00
2019-03-19T05:50:25.019Z,54.40
2019-03-19T05:52:54.291Z,56.10
2019-03-19T05:55:23.587Z,55.50
2019-03-19T05:57:53.119Z,54.40
2019-03-19T06:00:27.083Z,54.30
2019-03-19T06:02:56.579Z,55.60
2019-03-19T06:05:25.875Z,57.40
2019-03-19T06:07:55.167Z,54.20
2019-03-19T06:10:26.003Z,54.00
2019-03-19T06:12:55.889Z,54.00
2019-03-19T06:15:25.159Z,54.50
2019-03-19T06:17:54.459Z,53.40
2019-03-19T06:20:23.755Z,53.60
2019-03-19T06:22:53.036Z,52.90
2019-03-19T06:25:22.336Z,50.80
2019-03-19T06:27:59.784Z,50.50
2019-03-19T06:30:23.833Z,50.90
2019-03-19T06:32:53.135Z,50.10
2019-03-19T06:35:22.415Z,50.00
2019-03-19T06:37:51.710Z,49.00
2019-03-19T06:40:23.792Z,49.00
2019-03-19T06:42:53.087Z,48.30
2019-03-19T06:45:23.467Z,48.20
2019-03-19T06:47:52.805Z,48.70
2019-03-19T06:50:22.163Z,47.90
2019-03-19T06:52:51.439Z,46.50
2019-03-19T06:55:21.047Z,46.30
2019-03-19T06:57:50.346Z,46.30
2019-03-19T07:00:22.022Z,46.30
2019-03-19T07:02:51.391Z,47.10
2019-03-19T07:05:21.301Z,46.20
2019-03-19T07:07:50.633Z,46.30
2019-03-19T07:10:21.886Z,46.20
2019-03-19T07:12:51.264Z,43.90
2019-03-19T07:15:21.648Z,42.90
2019-03-19T07:17:51.054Z,43.00
2019-03-19T07:20:22.590Z,42.50
2019-03-19T07:22:51.935Z,42.20
2019-03-19T07:25:21.297Z,42.20
2019-03-19T07:27:51.048Z,40.40
2019-03-19T07:30:24.219Z,40.00
2019-03-19T07:32:53.500Z,39.60
2019-03-19T07:35:22.882Z,39.40
2019-03-19T07:37:52.228Z,39.30
2019-03-19T07:40:21.672Z,38.60
2019-03-19T07:42:51.019Z,36.70
2019-03-19T07:45:22.957Z,35.90
2019-03-19T07:48:01.923Z,34.70
2019-03-19T07:50:31.212Z,33.70
2019-03-19T07:53:00.778Z,33.20
2019-03-19T07:55:30.395Z,33.00
2019-03-19T07:57:59.678Z,32.90
2019-03-19T08:00:28.975Z,32.60
2019-03-19T08:02:58.257Z,32.40
2019-03-19T08:05:33.119Z,32.00
2019-03-19T08:07:58.840Z,32.60
2019-03-19T08:10:28.143Z,31.60
2019-03-19T08:12:57.411Z,40.30
2019-03-19T08:15:26.708Z,43.40
2019-03-19T08:17:55.978Z,29.10
2019-03-19T08:20:25.266Z,28.50
2019-03-19T08:22:54.791Z,26.80
2019-03-19T08:25:24.063Z,25.10
2019-03-19T08:27:53.363Z,24.40
2019-03-19T08:30:26.590Z,23.70
2019-03-19T08:32:55.874Z,23.90
2019-03-19T08:35:25.162Z,23.30
2019-03-19T08:37:54.441Z,24.40
2019-03-19T08:40:23.733Z,23.50
2019-03-19T08:42:53.250Z,24.50
2019-03-19T08:45:24.860Z,24.80
2019-03-19T08:47:54.134Z,24.30
2019-03-19T08:50:24.050Z,24.90
2019-03-19T08:52:55.269Z,24.80
2019-03-19T08:55:24.322Z,24.80
2019-03-19T08:57:53.603Z,23.10
2019-03-19T09:00:27.919Z,24.00
2019-03-19T09:02:57.198Z,23.70
2019-03-19T09:05:26.484Z,23.90
2019-03-19T09:07:55.773Z,24.00
2019-03-19T09:10:25.046Z,23.00
2019-03-19T09:12:54.583Z,22.20
2019-03-19T09:15:28.298Z,21.70
2019-03-19T09:17:57.667Z,21.60
2019-03-19T09:20:26.942Z,21.60
2019-03-19T09:22:56.230Z,20.70
2019-03-19T09:25:25.800Z,19.90
2019-03-19T09:27:55.085Z,19.30
2019-03-19T09:30:25.011Z,19.80
2019-03-19T09:32:54.620Z,19.80
2019-03-19T09:35:26.151Z,17.70
2019-03-19T09:37:58.885Z,17.90
2019-03-19T09:40:25.870Z,15.60
2019-03-19T09:42:55.152Z,15.30
2019-03-19T09:45:24.451Z,12.90
2019-03-19T09:47:53.730Z,12.50
2019-03-19T09:50:27.756Z,13.50
2019-03-19T09:52:57.031Z,11.10
2019-03-19T09:55:26.627Z,10.70
2019-03-19T09:57:55.909Z,11.50
2019-03-19T10:00:25.530Z,11.00
2019-03-19T10:02:54.876Z,11.40
2019-03-19T10:05:24.199Z,11.10
2019-03-19T10:07:55.550Z,11.30
2019-03-19T10:10:24.949Z,10.00
2019-03-19T10:12:54.310Z,9.80
2019-03-19T10:15:23.994Z,9.60
2019-03-19T10:17:53.270Z,10.10
2019-03-19T10:20:26.282Z,11.30
2019-03-19T10:22:55.891Z,11.50
2019-03-19T10:25:25.178Z,11.60
2019-03-19T10:27:54.462Z,11.70
2019-03-19T10:30:24.818Z,12.00
2019-03-19T10:32:54.432Z,12.20
2019-03-19T10:35:24.031Z,11.20
2019-03-19T10:37:53.306Z,10.90
2019-03-19T10:40:22.862Z,9.10
2019-03-19T10:42:52.144Z,10.60
2019-03-19T10:45:23.561Z,10.90
2019-03-19T10:47:53.095Z,11.10
2019-03-19T10:50:28.504Z,8.90
2019-03-19T10:52:58.050Z,5.60
2019-03-19T10:55:27.334Z,6.30
2019-03-19T10:57:56.627Z,2.60
2019-03-19T11:00:27.055Z,3.20
2019-03-19T11:02:56.691Z,2.30
2019-03-19T11:05:26.215Z,2.70
2019-03-19T11:07:55.503Z,1.00
2019-03-19T11:10:24.795Z,1.00
2019-03-19T11:12:54.060Z,2.60
2019-03-19T11:15:25.683Z,4.50
2019-03-19T11:17:54.962Z,3.60
2019-03-19T11:20:24.243Z,2.10
2019-03-19T11:22:53.536Z,1.00
2019-03-19T11:25:24.487Z,1.00
2019-03-19T11:27:53.826Z,1.70
2019-03-19T11:30:25.335Z,2.50
2019-03-19T11:32:54.611Z,1.50
2019-03-19T11:35:24.170Z,2.00
2019-03-19T11:37:53.461Z,1.60
2019-03-19T11:40:25.559Z,1.60
2019-03-19T11:42:54.089Z,1.80
2019-03-19T11:45:26.149Z,1.00
2019-03-19T11:47:55.447Z,1.20
2019-03-19T11:50:28.995Z,2.70
2019-03-19T11:52:58.278Z,2.10
2019-03-19T11:55:27.556Z,1.70
2019-03-19T11:57:57.793Z,2.80
2019-03-19T12:00:39.482Z,1.20
2019-03-19T12:03:15.281Z,1.00
2019-03-19T12:05:40.139Z,1.00
2019-03-19T12:08:09.435Z,1.00
2019-03-19T12:10:38.701Z,1.00
2019-03-19T12:13:08.338Z,1.20
2019-03-19T12:15:37.610Z,1.90
2019-03-19T12:18:06.899Z,1.00
2019-03-19T12:20:36.198Z,1.20
2019-03-19T12:23:05.725Z,1.00
2019-03-19T12:25:35.020Z,1.00
2019-03-19T12:28:05.052Z,1.00
2019-03-19T12:30:34.326Z,1.00
2019-03-19T12:33:03.605Z,1.00
2019-03-19T12:35:32.919Z,1.00
2019-03-19T12:38:02.191Z,1.00
2019-03-19T12:40:36.770Z,1.00
2019-03-19T12:43:02.450Z,1.00
2019-03-19T12:45:31.758Z,1.00
2019-03-19T12:48:01.022Z,1.00
2019-03-19T12:50:30.303Z,1.00
2019-03-19T12:52:59.659Z,1.00
2019-03-19T12:55:29.014Z,1.00
2019-03-19T12:57:58.311Z,1.00
2019-03-19T13:00:34.003Z,1.00
2019-03-19T13:02:59.140Z,1.00
2019-03-19T13:05:28.675Z,1.00
2019-03-19T13:07:58.276Z,1.00
2019-03-19T13:10:27.582Z,1.00
2019-03-19T13:12:56.853Z,1.00
2019-03-19T13:15:26.136Z,1.00
2019-03-19T13:17:55.414Z,1.00
2019-03-19T13:20:24.701Z,1.00
2019-03-19T13:22:53.970Z,1.00
2019-03-19T13:25:24.203Z,1.00
2019-03-19T13:27:53.551Z,1.00
2019-03-19T13:30:28.298Z,1.00
2019-03-19T13:32:57.574Z,1.00
2019-03-19T13:35:26.858Z,1.00
2019-03-19T13:37:56.144Z,1.00
2019-03-19T13:40:25.415Z,1.00
2019-03-19T13:42:54.772Z,1.00
2019-03-19T13:45:24.595Z,1.00
2019-03-19T13:47:54.154Z,1.00
2019-03-19T13:50:23.519Z,1.00
2019-03-19T13:52:52.805Z,1.00
2019-03-19T13:55:23.110Z,1.00
2019-03-19T13:57:52.400Z,1.00
2019-03-19T14:00:21.670Z,1.00
2019-03-19T14:02:51.295Z,1.00
2019-03-19T14:05:20.567Z,1.00
2019-03-19T14:07:50.104Z,1.00
2019-03-19T14:10:20.102Z,1.00
2019-03-19T14:12:49.475Z,1.00
2019-03-19T14:15:26.826Z,1.00
2019-03-19T14:17:56.132Z,1.00
2019-03-19T14:20:25.528Z,1.00
2019-03-19T14:22:54.814Z,1.00
2019-03-19T14:25:24.107Z,1.00
2019-03-19T14:27:53.396Z,1.00
2019-03-19T14:30:26.315Z,1.00
2019-03-19T14:32:55.578Z,1.00
2019-03-19T14:35:24.909Z,1.00
2019-03-19T14:37:54.186Z,1.00
2019-03-19T14:40:24.608Z,1.00
2019-03-19T14:42:54.127Z,1.00
2019-03-19T14:45:23.394Z,1.00
2019-03-19T14:47:52.771Z,1.00
2019-03-19T14:50:24.190Z,1.00
2019-03-19T14:52:53.796Z,1.00
2019-03-19T14:55:23.404Z,1.00
2019-03-19T14:57:52.670Z,1.00
2019-03-19T15:00:23.512Z,1.00
2019-03-19T15:02:52.774Z,1.00
2019-03-19T15:05:22.052Z,1.00
2019-03-19T15:07:51.351Z,1.00
2019-03-19T15:10:21.570Z,1.00
2019-03-19T15:12:50.860Z,1.00
2019-03-19T15:15:21.075Z,1.00
2019-03-19T15:17:50.436Z,1.00
2019-03-19T15:20:25.825Z,1.00
2019-03-19T15:22:55.186Z,1.00
2019-03-19T15:25:24.472Z,1.00
2019-03-19T15:27:53.759Z,1.00
2019-03-19T15:30:23.038Z,1.00
2019-03-19T15:32:52.340Z,1.00
2019-03-19T15:35:21.729Z,1.00
2019-03-19T15:37:51.039Z,1.00
2019-03-19T15:40:21.028Z,1.00
2019-03-19T15:42:50.759Z,1.00
2019-03-19T15:45:24.991Z,1.00
2019-03-19T15:47:54.270Z,1.00
2019-03-19T15:50:23.558Z,1.00
2019-03-19T15:52:52.827Z,1.00
2019-03-19T15:55:22.119Z,1.00
2019-03-19T15:57:51.415Z,1.00
2019-03-19T16:00:21.547Z,1.00
2019-03-19T16:02:50.811Z,1.00
2019-03-19T16:05:20.412Z,1.00
2019-03-19T16:07:49.698Z,1.00
2019-03-19T16:10:19.156Z,1.00
2019-03-19T16:12:48.459Z,1.00
2019-03-19T16:15:19.726Z,1.00
2019-03-19T16:17:49.015Z,1.00
2019-03-19T16:20:22.265Z,1.00
2019-03-19T16:22:51.563Z,1.00
2019-03-19T16:25:20.835Z,1.00
2019-03-19T16:27:50.123Z,1.00
2019-03-19T16:30:22.091Z,1.00
2019-03-19T16:32:51.376Z,1.00
2019-03-19T16:35:21.026Z,1.00
2019-03-19T16:37:50.302Z,1.00
2019-03-19T16:40:20.614Z,1.00
2019-03-19T16:42:49.975Z,1.00
2019-03-19T16:45:19.395Z,1.00
2019-03-19T16:47:48.746Z,1.00
2019-03-19T16:50:21.570Z,1.00
2019-03-19T16:52:50.914Z,1.00
2019-03-19T16:55:21.530Z,1.00
2019-03-19T16:57:50.850Z,1.00
2019-03-19T17:00:22.330Z,1.00
2019-03-19T17:02:51.610Z,1.00
2019-03-19T17:05:21.338Z,1.90
2019-03-19T17:07:50.675Z,2.30
2019-03-19T17:10:28.881Z,2.80
2019-03-19T17:12:58.138Z,3.20
2019-03-19T17:15:27.434Z,3.70
2019-03-19T17:17:56.955Z,4.40
2019-03-19T17:20:26.243Z,4.50
2019-03-19T17:22:55.762Z,4.80
2019-03-19T17:25:25.886Z,5.50
2019-03-19T17:27:55.162Z,5.50
2019-03-19T17:30:26.858Z,5.20
2019-03-19T17:32:56.132Z,5.60
2019-03-19T17:35:25.751Z,5.40
2019-03-19T17:37:55.039Z,5.60
2019-03-19T17:40:24.319Z,6.50
2019-03-19T17:42:53.666Z,5.90
2019-03-19T17:45:22.955Z,7.10
2019-03-19T17:47:52.339Z,7.10
2019-03-19T17:50:29.843Z,7.50
2019-03-19T17:52:59.215Z,7.10
2019-03-19T17:55:28.859Z,7.40
2019-03-19T17:57:58.214Z,7.50
2019-03-19T18:00:29.122Z,7.70
2019-03-19T18:02:58.479Z,8.20
2019-03-19T18:05:27.977Z,8.60
2019-03-19T18:07:57.260Z,8.60
2019-03-19T18:10:26.825Z,9.10
2019-03-19T18:12:56.110Z,10.50
2019-03-19T18:15:25.410Z,10.60
2019-03-19T18:17:54.682Z,10.80
2019-03-19T18:20:24.218Z,12.20
2019-03-19T18:22:53.898Z,12.40
2019-03-19T18:25:23.243Z,12.50
2019-03-19T18:27:52.519Z,13.10
2019-03-19T18:30:23.329Z,13.50
2019-03-19T18:32:52.631Z,13.90
2019-03-19T18:35:21.903Z,14.00
2019-03-19T18:37:51.262Z,14.50
2019-03-19T18:40:21.081Z,14.70
2019-03-19T18:42:50.359Z,15.30
2019-03-19T18:45:20.308Z,15.40
2019-03-19T18:47:49.536Z,15.40
2019-03-19T18:50:22.637Z,15.50
2019-03-19T18:52:51.982Z,15.90
2019-03-19T18:55:21.250Z,16.40
2019-03-19T18:57:50.599Z,17.10
2019-03-19T19:00:23.866Z,17.90
2019-03-19T19:02:53.136Z,17.50
2019-03-19T19:05:23.447Z,18.40
2019-03-19T19:07:52.802Z,18.20
2019-03-19T19:10:22.115Z,18.30
2019-03-19T19:12:51.440Z,18.30
2019-03-19T19:15:21.652Z,18.60
2019-03-19T19:17:51.265Z,19.10
2019-03-19T19:20:20.675Z,18.80
2019-03-19T19:22:49.963Z,18.80
2019-03-19T19:25:25.928Z,19.00
2019-03-19T19:27:55.191Z,19.00
2019-03-19T19:30:31.850Z,19.80
2019-03-19T19:33:02.493Z,20.30
2019-03-19T19:35:32.107Z,20.70
2019-03-19T19:38:03.348Z,20.20
2019-03-19T19:40:32.411Z,20.60
2019-03-19T19:43:01.968Z,20.60
2019-03-19T19:45:31.263Z,21.00
2019-03-19T19:48:00.543Z,21.10
2019-03-19T19:50:29.832Z,21.70
2019-03-19T19:52:59.102Z,21.70
2019-03-19T19:55:28.473Z,22.00
2019-03-19T19:57:57.980Z,22.00
2019-03-19T20:00:27.458Z,22.00
2019-03-19T20:02:56.735Z,22.10
2019-03-19T20:05:26.107Z,21.80
2019-03-19T20:07:55.400Z,22.10
2019-03-19T20:10:26.026Z,22.50
2019-03-19T20:12:55.313Z,22.70
2019-03-19T20:15:24.632Z,22.90
2019-03-19T20:17:53.919Z,22.70
2019-03-19T20:20:24.840Z,23.00
2019-03-19T20:22:54.274Z,22.50
2019-03-19T20:25:23.583Z,22.80
2019-03-19T20:27:53.168Z,22.50
2019-03-19T20:30:28.014Z,22.90
2019-03-19T20:32:57.295Z,22.70
2019-03-19T20:35:26.629Z,23.30
2019-03-19T20:37:56.207Z,23.70
2019-03-19T20:40:25.490Z,23.70
2019-03-19T20:42:54.819Z,23.60
2019-03-19T20:45:26.294Z,23.90
2019-03-19T20:47:55.873Z,24.20
2019-03-19T20:50:32.942Z,24.40
2019-03-19T20:53:02.350Z,24.30
2019-03-19T20:55:31.670Z,24.20
2019-03-19T20:58:01.263Z,24.60
2019-03-19T21:00:30.542Z,24.60
2019-03-19T21:03:00.067Z,24.20
2019-03-19T21:05:29.369Z,24.10
2019-03-19T21:07:58.704Z,24.00
2019-03-19T21:10:27.991Z,24.50
2019-03-19T21:12:57.330Z,24.00
2019-03-19T21:15:30.430Z,23.70
2019-03-19T21:17:59.782Z,24.10
2019-03-19T21:20:29.373Z,25.40
2019-03-19T21:22:58.661Z,25.70
2019-03-19T21:25:27.941Z,26.80
2019-03-19T21:27:57.223Z,25.70
2019-03-19T21:30:26.783Z,26.50
2019-03-19T21:32:56.152Z,26.30
2019-03-19T21:35:25.795Z,27.30
2019-03-19T21:37:55.098Z,25.40
2019-03-19T21:40:24.378Z,25.00
2019-03-19T21:42:53.907Z,25.60
2019-03-19T21:45:23.475Z,26.00
2019-03-19T21:47:53.015Z,26.20
2019-03-19T21:50:25.883Z,26.50
2019-03-19T21:52:55.162Z,26.30
2019-03-19T21:55:24.455Z,26.70
2019-03-19T21:57:53.735Z,26.90
2019-03-19T22:00:25.231Z,27.10
2019-03-19T22:02:54.536Z,27.20
2019-03-19T22:05:23.826Z,27.90
2019-03-19T22:07:53.098Z,27.60
2019-03-19T22:10:23.256Z,27.50
2019-03-19T22:12:52.538Z,28.00
2019-03-19T22:15:25.206Z,28.40
2019-03-19T22:17:54.486Z,28.00
2019-03-19T22:20:23.780Z,27.90
2019-03-19T22:22:53.357Z,27.90
2019-03-19T22:25:22.641Z,28.20
2019-03-19T22:27:52.089Z,28.40
2019-03-19T22:30:22.351Z,28.40
2019-03-19T22:32:51.624Z,28.20
2019-03-19T22:35:20.915Z,27.60
2019-03-19T22:37:50.495Z,28.20
2019-03-19T22:40:19.775Z,28.80
2019-03-19T22:42:49.298Z,28.80
2019-03-19T22:45:20.153Z,28.10
2019-03-19T22:47:49.436Z,28.70
2019-03-19T22:50:19.157Z,28.50
2019-03-19T22:52:48.447Z,28.90
2019-03-19T22:55:28.662Z,28.70
2019-03-19T22:57:49.035Z,28.30
2019-03-19T23:00:37.386Z,28.90
2019-03-19T23:03:07.780Z,28.80
2019-03-19T23:05:37.106Z,29.20
2019-03-19T23:08:06.464Z,29.40
2019-03-19T23:10:36.011Z,29.90
2019-03-19T23:13:05.611Z,30.90
2019-03-19T23:15:38.082Z,29.90
2019-03-19T23:18:07.672Z,30.00
2019-03-19T23:20:36.975Z,30.00
2019-03-19T23:23:06.240Z,30.00
2019-03-19T23:25:35.522Z,29.90
2019-03-19T23:28:04.966Z,29.90
2019-03-19T23:30:34.263Z,30.20
2019-03-19T23:33:03.711Z,30.20
2019-03-19T23:35:33.008Z,30.10
2019-03-19T23:38:02.586Z,30.10
2019-03-19T23:40:31.887Z,29.80
2019-03-19T23:43:01.176Z,29.80
2019-03-19T23:45:30.695Z,30.00
2019-03-19T23:47:59.991Z,29.80
2019-03-19T23:50:29.265Z,29.80
2019-03-19T23:52:58.561Z,30.40
2019-03-19T23:55:27.831Z,30.60
2019-03-19T23:57:57.128Z,30.80
